createdAt,value
2018-12-11T00:01:50.467Z,95945.14
2018-12-11T00:04:25.275Z,95945.48
2018-12-11T00:07:03.902Z,95945.02
2018-12-11T00:09:44.491Z,95946.40
2018-12-11T00:12:24.497Z,95950.26
2018-12-11T00:15:06.811Z,95945.84
2018-12-11T00:17:47.985Z,95939.77
2018-12-11T00:20:27.444Z,95937.90
2018-12-11T00:23:09.476Z,95938.97
2018-12-11T00:25:44.113Z,95940.01
2018-12-11T00:28:19.262Z,95937.34
2018-12-11T00:30:57.761Z,95942.22
2018-12-11T00:33:42.303Z,95943.73
2018-12-11T00:36:20.346Z,95933.59
2018-12-11T00:42:03.083Z,95941.75
2018-12-11T00:44:41.583Z,95943.52
2018-12-11T00:47:23.952Z,95938.27
2018-12-11T00:50:02.336Z,95944.30
2018-12-11T00:52:39.858Z,95941.18
2018-12-11T00:55:14.342Z,95936.51
2018-12-11T00:58:07.699Z,95952.94
2018-12-11T01:01:00.411Z,95951.77
2018-12-11T01:06:35.627Z,95948.27
2018-12-11T01:09:12.234Z,95940.36
2018-12-11T01:20:44.088Z,95961.89
2018-12-11T01:23:22.626Z,95962.38
2018-12-11T01:25:57.410Z,95962.14
2018-12-11T01:28:44.421Z,95965.53
2018-12-11T01:31:24.846Z,95970.41
2018-12-11T01:34:05.237Z,95979.86
2018-12-11T01:36:39.958Z,95974.48
2018-12-11T01:39:33.612Z,95980.19
2018-12-11T01:42:19.986Z,95985.44
2018-12-11T01:48:12.250Z,95980.08
2018-12-11T01:50:47.367Z,95977.17
2018-12-11T01:59:21.874Z,95977.41
2018-12-11T02:01:56.408Z,95982.97
2018-12-11T02:04:32.525Z,95968.09
2018-12-11T02:07:06.970Z,95968.19
2018-12-11T02:12:38.509Z,95968.78
2018-12-11T02:15:16.591Z,95971.45
2018-12-11T02:21:03.577Z,95960.51
2018-12-11T02:23:56.304Z,95960.98
2018-12-11T02:26:30.753Z,95964.58
2018-12-11T02:29:05.502Z,95959.91
2018-12-11T02:31:40.162Z,95959.47
2018-12-11T02:34:15.675Z,95963.31
2018-12-11T02:36:51.033Z,95958.29
2018-12-11T02:39:26.103Z,95963.53
2018-12-11T02:42:01.797Z,95957.12
2018-12-11T02:44:36.419Z,95957.23
2018-12-11T02:47:11.182Z,95962.14
2018-12-11T02:49:46.034Z,95961.08
2018-12-11T02:52:20.635Z,95954.09
2018-12-11T02:54:55.643Z,95951.55
2018-12-11T02:57:29.946Z,95963.66
2018-12-11T03:00:07.759Z,95958.42
2018-12-11T03:02:42.239Z,95955.97
2018-12-11T03:05:16.938Z,95961.92
2018-12-11T03:07:51.592Z,95959.70
2018-12-11T03:10:26.241Z,95961.22
2018-12-11T03:13:00.986Z,95969.02
2018-12-11T03:15:35.727Z,95965.53
2018-12-11T03:18:10.585Z,95967.84
2018-12-11T03:20:44.886Z,95962.84
2018-12-11T03:23:19.693Z,95971.11
2018-12-11T03:25:54.525Z,95969.46
2018-12-11T03:28:29.744Z,95971.58
2018-12-11T03:31:04.739Z,95965.16
2018-12-11T03:33:40.282Z,95957.34
2018-12-11T03:36:14.773Z,95954.46
2018-12-11T03:38:49.686Z,95956.55
2018-12-11T03:41:24.886Z,95957.81
2018-12-11T03:43:59.387Z,95956.44
2018-12-11T03:46:35.054Z,95960.63
2018-12-11T03:49:09.669Z,95967.05
2018-12-11T03:51:44.522Z,95975.42
2018-12-11T03:54:19.210Z,95981.60
2018-12-11T03:56:53.816Z,95976.56
2018-12-11T03:59:29.413Z,95975.08
2018-12-11T04:02:05.718Z,95979.83
2018-12-11T04:04:40.641Z,95984.14
2018-12-11T04:07:15.678Z,95977.85
2018-12-11T04:09:50.429Z,95977.97
2018-12-11T04:12:25.274Z,95979.26
2018-12-11T04:15:00.103Z,95989.87
2018-12-11T04:17:34.672Z,95981.83
2018-12-11T04:20:10.234Z,95987.99
2018-12-11T04:22:45.023Z,95990.55
2018-12-11T04:25:19.918Z,95988.69
2018-12-11T04:27:54.482Z,95982.28
2018-12-11T04:30:29.094Z,95980.30
2018-12-11T04:33:03.640Z,95986.13
2018-12-11T04:35:37.926Z,95977.75
2018-12-11T04:38:12.466Z,95976.45
2018-12-11T04:40:47.296Z,95974.14
2018-12-11T04:43:22.674Z,95988.02
2018-12-11T04:45:57.636Z,95987.05
2018-12-11T04:48:32.023Z,95987.20
2018-12-11T04:51:06.503Z,95997.78
2018-12-11T04:53:41.216Z,95993.13
2018-12-11T04:56:15.499Z,95984.61
2018-12-11T04:58:50.267Z,95996.38
2018-12-11T05:01:25.046Z,95987.88
2018-12-11T05:03:59.883Z,95987.52
2018-12-11T05:06:35.124Z,96001.28
2018-12-11T05:09:09.870Z,95991.48
2018-12-11T05:11:46.720Z,95997.78
2018-12-11T05:14:21.359Z,95991.51
2018-12-11T05:16:56.155Z,96010.84
2018-12-11T05:19:30.555Z,96008.38
2018-12-11T05:22:07.398Z,96008.17
2018-12-11T05:24:41.994Z,96015.97
2018-12-11T05:27:16.750Z,96005.81
2018-12-11T05:29:51.545Z,96014.58
2018-12-11T05:32:26.823Z,96015.25
2018-12-11T05:35:02.010Z,96004.91
2018-12-11T05:37:37.234Z,96004.20
2018-12-11T05:40:11.748Z,95996.38
2018-12-11T05:42:47.226Z,95992.67
2018-12-11T05:45:21.850Z,95999.42
2018-12-11T05:54:02.647Z,96006.15
2018-12-11T05:56:37.888Z,96006.03
2018-12-11T05:59:17.931Z,96014.56
2018-12-11T06:01:52.677Z,96014.77
2018-12-11T06:04:45.696Z,96005.83
2018-12-11T06:07:38.306Z,96009.20
2018-12-11T06:10:13.214Z,96008.62
2018-12-11T06:13:04.197Z,96006.98
2018-12-11T06:15:38.936Z,96007.10
2018-12-11T06:18:19.298Z,96010.70
2018-12-11T06:20:59.557Z,95998.70
2018-12-11T06:23:46.398Z,95993.13
2018-12-11T06:26:21.270Z,95980.19
2018-12-11T06:32:14.290Z,95984.84
2018-12-11T06:34:49.410Z,95970.05
2018-12-11T06:37:23.733Z,95970.17
2018-12-11T06:40:03.984Z,95979.50
2018-12-11T06:42:39.110Z,95977.63
2018-12-11T06:45:13.850Z,95988.80
2018-12-11T06:47:48.642Z,95989.27
2018-12-11T06:50:22.924Z,95989.05
2018-12-11T06:52:57.619Z,95988.59
2018-12-11T06:55:32.062Z,95994.41
2018-12-11T06:58:10.201Z,95991.02
2018-12-11T07:00:45.245Z,96003.39
2018-12-11T07:03:20.211Z,96005.48
2018-12-11T07:05:54.927Z,96002.11
2018-12-11T07:08:41.235Z,96011.43
2018-12-11T07:11:16.004Z,96006.86
2018-12-11T07:13:50.823Z,96022.48
2018-12-11T07:16:25.420Z,96028.05
2018-12-11T07:19:00.361Z,96022.80
2018-12-11T07:21:34.796Z,96021.27
2018-12-11T07:24:16.762Z,96019.02
2018-12-11T07:26:51.271Z,96021.45
2018-12-11T07:29:26.257Z,96019.86
2018-12-11T07:35:00.277Z,96026.41
2018-12-11T07:37:35.196Z,96035.12
2018-12-11T07:40:15.474Z,96032.82
2018-12-11T07:45:46.398Z,96021.87
2018-12-11T07:51:35.826Z,96024.81
2018-12-11T07:54:22.360Z,96040.19
2018-12-11T07:56:56.850Z,96047.03
2018-12-11T07:59:37.514Z,96048.66
2018-12-11T08:11:16.965Z,96038.45
2018-12-11T08:14:04.179Z,96031.35
2018-12-11T08:16:42.034Z,96028.91
2018-12-11T08:19:36.861Z,96032.91
2018-12-11T08:25:08.803Z,96029.87
2018-12-11T08:30:39.546Z,96030.52
2018-12-11T08:33:20.250Z,96020.72
2018-12-11T08:35:54.942Z,96030.86
2018-12-11T08:44:29.019Z,96039.27
2018-12-11T08:47:09.779Z,96056.60
2018-12-11T08:52:24.874Z,96036.91
2018-12-11T08:54:59.418Z,96048.94
2018-12-11T08:57:34.974Z,96047.67
2018-12-11T09:00:15.789Z,96050.80
2018-12-11T09:02:56.100Z,96046.63
2018-12-11T09:05:30.852Z,96053.02
2018-12-11T09:08:09.366Z,96057.34
2018-12-11T09:11:01.799Z,96059.91
2018-12-11T09:13:39.946Z,96049.75
2018-12-11T09:19:14.613Z,96049.30
2018-12-11T09:21:53.321Z,96056.05
2018-12-11T09:24:28.897Z,96061.20
2018-12-11T09:27:06.726Z,96071.11
2018-12-11T09:29:44.695Z,96069.36
2018-12-11T09:32:25.783Z,96062.34
2018-12-11T09:35:04.148Z,96065.37
2018-12-11T09:37:41.315Z,96063.19
2018-12-11T09:40:24.533Z,96074.72
2018-12-11T09:43:00.967Z,96072.73
2018-12-11T09:45:52.595Z,96077.16
2018-12-11T09:48:41.855Z,96079.95
2018-12-11T09:51:32.538Z,96081.25
2018-12-11T09:57:10.303Z,96064.91
2018-12-11T09:59:48.103Z,96062.00
2018-12-11T10:02:26.036Z,96063.27
2018-12-11T10:11:02.237Z,96057.91
2018-12-11T10:13:42.577Z,96058.48
2018-12-11T10:16:22.894Z,96053.68
2018-12-11T10:19:04.148Z,96060.23
2018-12-11T10:21:42.548Z,96052.39
2018-12-11T10:24:33.895Z,96048.22
2018-12-11T10:27:08.614Z,96055.33
2018-12-11T10:29:43.088Z,96049.83
2018-12-11T10:32:26.300Z,96049.25
2018-12-11T10:35:09.642Z,96047.41
2018-12-11T10:37:56.887Z,96052.98
2018-12-11T10:40:44.727Z,96035.16
2018-12-11T10:43:26.150Z,96039.80
2018-12-11T10:46:06.088Z,96037.34
2018-12-11T10:48:45.559Z,96037.75
2018-12-11T10:51:23.672Z,96033.31
2018-12-11T10:54:00.559Z,96029.20
2018-12-11T10:56:38.212Z,96040.34
2018-12-11T10:59:15.718Z,96038.27
2018-12-11T11:01:52.254Z,96036.17
2018-12-11T11:04:35.168Z,96028.77
2018-12-11T11:07:15.602Z,96034.38
2018-12-11T11:09:53.959Z,96031.11
2018-12-11T11:12:32.871Z,96023.53
2018-12-11T11:15:13.706Z,96026.33
2018-12-11T11:17:55.342Z,96024.91
2018-12-11T11:20:33.587Z,96035.66
2018-12-11T11:23:20.804Z,96031.48
2018-12-11T11:25:59.525Z,96031.73
2018-12-11T11:28:47.856Z,96032.20
2018-12-11T11:31:30.237Z,96033.36
2018-12-11T11:34:11.261Z,96040.27
2018-12-11T11:36:53.153Z,96040.88
2018-12-11T11:42:31.661Z,96036.47
2018-12-11T11:54:00.561Z,96039.03
2018-12-11T11:56:38.544Z,96031.94
2018-12-11T11:59:13.146Z,96030.87
2018-12-11T12:01:53.888Z,96035.41
2018-12-11T12:04:34.941Z,96027.02
2018-12-11T12:07:17.520Z,96028.41
2018-12-11T12:09:58.963Z,96018.58
2018-12-11T12:12:52.024Z,96021.80
2018-12-11T12:15:49.613Z,96028.69
2018-12-11T12:18:24.243Z,96020.13
2018-12-11T12:20:58.577Z,96021.38
2018-12-11T12:23:36.505Z,96022.69
2018-12-11T12:26:11.161Z,96014.83
2018-12-11T12:28:51.403Z,96015.84
2018-12-11T12:31:26.735Z,96019.37
2018-12-11T12:34:07.798Z,96020.63
2018-12-11T12:36:47.450Z,96016.93
2018-12-11T12:39:36.564Z,96014.58
2018-12-11T12:45:10.766Z,96024.11
2018-12-11T12:47:45.435Z,96017.09
2018-12-11T12:50:20.269Z,96017.47
2018-12-11T12:52:54.643Z,96019.14
2018-12-11T12:55:29.530Z,96015.92
2018-12-11T12:58:04.473Z,96023.73
2018-12-11T13:00:39.576Z,96027.58
2018-12-11T13:03:14.310Z,96026.53
2018-12-11T13:05:50.862Z,96024.91
2018-12-11T13:08:25.830Z,96030.29
2018-12-11T13:11:00.428Z,96026.22
2018-12-11T13:16:32.241Z,96030.06
2018-12-11T13:19:07.250Z,96022.00
2018-12-11T13:21:42.126Z,96022.25
2018-12-11T13:24:16.651Z,96018.50
2018-12-11T13:26:51.462Z,96021.19
2018-12-11T13:29:26.063Z,96018.85
2018-12-11T13:32:00.509Z,96028.55
2018-12-11T13:34:34.862Z,96019.92
2018-12-11T13:37:10.089Z,96025.97
2018-12-11T13:39:44.650Z,96021.67
2018-12-11T13:42:27.358Z,96022.94
2018-12-11T13:45:01.986Z,96024.33
2018-12-11T13:47:37.788Z,96028.30
2018-12-11T13:50:13.973Z,96029.82
2018-12-11T13:52:54.026Z,96033.78
2018-12-11T13:55:34.895Z,96035.28
2018-12-11T13:58:15.212Z,96031.20
2018-12-11T14:01:02.782Z,96034.13
2018-12-11T14:03:37.362Z,96041.14
2018-12-11T14:06:19.278Z,96033.91
2018-12-11T14:08:55.864Z,96035.64
2018-12-11T14:11:30.595Z,96031.34
2018-12-11T14:14:08.623Z,96033.34
2018-12-11T14:16:58.463Z,96035.09
2018-12-11T14:19:43.474Z,96027.83
2018-12-11T14:22:21.210Z,96030.98
2018-12-11T14:27:48.839Z,96026.32
2018-12-11T14:30:24.027Z,96023.42
2018-12-11T14:32:58.569Z,96015.34
2018-12-11T14:35:33.842Z,96018.05
2018-12-11T14:38:09.397Z,96026.34
2018-12-11T14:40:45.006Z,96033.89
2018-12-11T14:43:19.331Z,96023.19
2018-12-11T14:45:53.942Z,96022.25
2018-12-11T14:48:28.533Z,96022.37
2018-12-11T14:51:03.562Z,96022.72
2018-12-11T14:53:39.098Z,96020.97
2018-12-11T14:56:19.339Z,96027.48
2018-12-11T14:58:54.095Z,96024.81
2018-12-11T15:01:29.142Z,96028.44
2018-12-11T15:04:04.655Z,96034.70
2018-12-11T15:06:42.842Z,96039.97
2018-12-11T15:09:22.576Z,96025.52
2018-12-11T15:11:57.016Z,96033.78
2018-12-11T15:14:35.262Z,96038.11
2018-12-11T15:17:14.246Z,96018.42
2018-12-11T15:19:52.231Z,96023.78
2018-12-11T15:22:31.778Z,96026.91
2018-12-11T15:25:12.078Z,96024.93
2018-12-11T15:27:46.960Z,96021.56
2018-12-11T15:30:29.891Z,96027.14
2018-12-11T15:38:59.482Z,96045.67
2018-12-11T15:41:34.485Z,96048.14
2018-12-11T15:44:23.359Z,96035.66
2018-12-11T15:47:01.446Z,96034.25
2018-12-11T15:49:36.202Z,96039.50
2018-12-11T15:52:14.383Z,96035.88
2018-12-11T15:54:59.001Z,96040.11
2018-12-11T15:57:37.483Z,96043.83
2018-12-11T16:03:26.875Z,96050.57
2018-12-11T16:06:07.287Z,96056.41
2018-12-11T16:08:42.228Z,96058.03
2018-12-11T16:11:22.949Z,96060.50
2018-12-11T16:14:04.010Z,96063.88
2018-12-11T16:19:47.627Z,96047.89
2018-12-11T16:22:31.822Z,96054.31
2018-12-11T16:25:07.282Z,96041.83
2018-12-11T16:27:59.890Z,96060.26
2018-12-11T16:33:47.863Z,96062.92
2018-12-11T16:36:22.922Z,96064.09
2018-12-11T16:38:57.609Z,96058.62
2018-12-11T16:41:48.658Z,96058.39
2018-12-11T16:47:10.524Z,96058.03
2018-12-11T16:49:45.742Z,96063.17
2018-12-11T16:52:39.439Z,96063.41
2018-12-11T16:55:20.195Z,96058.38
2018-12-11T16:57:59.516Z,96054.91
2018-12-11T17:00:34.371Z,96066.89
2018-12-11T17:03:18.816Z,96066.42
2018-12-11T17:06:00.562Z,96063.39
2018-12-11T17:08:40.351Z,96077.05
2018-12-11T17:11:15.219Z,96068.76
2018-12-11T17:13:51.155Z,96077.75
2018-12-11T17:16:29.689Z,96079.00
2018-12-11T17:19:04.585Z,96076.67
2018-12-11T17:21:39.531Z,96075.05
2018-12-11T17:24:15.416Z,96077.14
2018-12-11T17:26:53.367Z,96074.72
2018-12-11T17:29:29.151Z,96080.89
2018-12-11T17:32:09.830Z,96076.22
2018-12-11T17:34:52.055Z,96073.09
2018-12-11T17:37:37.280Z,96075.89
2018-12-11T17:40:18.303Z,96081.25
2018-12-11T17:42:54.850Z,96076.57
2018-12-11T17:45:31.694Z,96075.17
2018-12-11T17:51:08.882Z,96080.88
2018-12-11T17:53:50.740Z,96074.25
2018-12-11T17:56:25.631Z,96075.76
2018-12-11T18:05:10.118Z,96077.95
2018-12-11T18:07:44.930Z,96077.72
2018-12-11T18:10:24.197Z,96077.50
2018-12-11T18:13:21.415Z,96077.03
2018-12-11T18:16:02.706Z,96073.53
2018-12-11T18:18:40.728Z,96081.70
2018-12-11T18:21:38.616Z,96075.98
2018-12-11T18:24:26.758Z,96075.30
2018-12-11T18:27:06.263Z,96079.83
2018-12-11T18:29:42.697Z,96073.66
2018-12-11T18:32:26.435Z,96070.97
2018-12-11T18:35:01.854Z,96074.23
2018-12-11T18:37:40.245Z,96066.66
2018-12-11T18:40:21.062Z,96065.73
2018-12-11T18:42:57.673Z,96078.67
2018-12-11T18:45:44.515Z,96077.86
2018-12-11T18:48:19.605Z,96077.59
2018-12-11T18:50:54.189Z,96087.39
2018-12-11T18:53:32.079Z,96077.36
2018-12-11T18:56:12.618Z,96066.53
2018-12-11T18:59:00.908Z,96077.51
2018-12-11T19:01:52.686Z,96070.39
2018-12-11T19:04:39.247Z,96074.92
2018-12-11T19:07:15.450Z,96080.05
2018-12-11T19:09:55.072Z,96083.42
2018-12-11T19:12:33.737Z,96078.06
2018-12-11T19:15:13.934Z,96077.71
2018-12-11T19:17:48.443Z,96083.89
2018-12-11T19:20:23.469Z,96077.48
2018-12-11T19:23:09.069Z,96075.27
2018-12-11T19:25:49.322Z,96067.70
2018-12-11T19:28:27.731Z,96063.94
2018-12-11T19:31:16.694Z,96069.42
2018-12-11T19:33:51.202Z,96068.16
2018-12-11T19:36:26.332Z,96073.17
2018-12-11T19:39:01.386Z,96059.19
2018-12-11T19:41:36.344Z,96062.80
2018-12-11T19:44:12.576Z,96069.67
2018-12-11T19:46:53.405Z,96055.02
2018-12-11T19:52:39.611Z,96055.24
2018-12-11T19:58:09.419Z,96056.65
2018-12-11T20:00:44.611Z,96052.42
2018-12-11T20:06:24.498Z,96052.67
2018-12-11T20:08:59.662Z,96053.11
2018-12-11T20:11:34.569Z,96054.04
2018-12-11T20:14:13.094Z,96049.63
2018-12-11T20:16:59.713Z,96060.83
2018-12-11T20:19:39.613Z,96052.56
2018-12-11T20:22:23.481Z,96052.55
2018-12-11T20:28:01.759Z,96039.36
2018-12-11T20:30:54.577Z,96041.46
2018-12-11T20:33:30.526Z,96046.50
2018-12-11T20:36:12.510Z,96050.24
2018-12-11T20:41:53.507Z,96050.11
2018-12-11T20:44:38.404Z,96044.85
2018-12-11T20:47:25.927Z,96047.54
2018-12-11T20:55:31.146Z,96050.12
2018-12-11T20:58:11.323Z,96048.84
2018-12-11T21:00:49.000Z,96048.13
2018-12-11T21:03:27.195Z,96052.80
2018-12-11T21:06:06.047Z,96053.95
2018-12-11T21:08:41.970Z,96053.25
2018-12-11T21:11:16.978Z,96052.92
2018-12-11T21:14:04.433Z,96053.36
2018-12-11T21:16:39.046Z,96046.73
2018-12-11T21:19:17.088Z,96050.36
2018-12-11T21:21:51.547Z,96046.50
2018-12-11T21:24:33.015Z,96045.91
2018-12-11T21:27:23.639Z,96047.44
2018-12-11T21:29:58.397Z,96048.72
2018-12-11T21:35:37.435Z,96052.56
2018-12-11T21:38:22.847Z,96055.36
2018-12-11T21:41:03.703Z,96050.46
2018-12-11T21:43:46.471Z,96057.09
2018-12-11T21:46:21.534Z,96054.91
2018-12-11T21:49:04.407Z,96056.87
2018-12-11T21:51:42.607Z,96060.16
2018-12-11T21:57:20.341Z,96060.35
2018-12-11T21:59:59.438Z,96056.62
2018-12-11T22:02:34.031Z,96058.50
2018-12-11T22:05:21.639Z,96049.03
2018-12-11T22:08:01.647Z,96056.95
2018-12-11T22:10:41.979Z,96054.30
2018-12-11T22:13:20.884Z,96058.15
2018-12-11T22:15:59.385Z,96057.20
2018-12-11T22:18:37.817Z,96053.02
2018-12-11T22:21:18.362Z,96053.70
2018-12-11T22:23:56.105Z,96048.59
2018-12-11T22:26:36.910Z,96049.64
2018-12-11T22:29:23.603Z,96048.56
2018-12-11T22:32:04.932Z,96049.16
2018-12-11T22:34:53.456Z,96049.73
2018-12-11T22:37:32.008Z,96043.09
2018-12-11T22:40:08.186Z,96046.47
2018-12-11T22:42:50.710Z,96040.04
2018-12-11T22:45:32.548Z,96040.39
2018-12-11T22:48:09.190Z,96038.20
2018-12-11T22:50:50.164Z,96045.31
2018-12-11T22:53:27.691Z,96042.75
2018-12-11T22:56:08.420Z,96045.54
2018-12-11T22:58:46.265Z,96044.61
2018-12-11T23:01:26.207Z,96047.16
2018-12-11T23:04:04.806Z,96041.72
2018-12-11T23:06:39.431Z,96049.05
2018-12-11T23:09:14.634Z,96041.72
2018-12-11T23:11:52.710Z,96041.00
2018-12-11T23:14:33.206Z,96048.59
2018-12-11T23:17:11.247Z,96042.27
2018-12-11T23:20:02.252Z,96039.97
2018-12-11T23:22:38.866Z,96042.29
2018-12-11T23:25:21.790Z,96046.50
2018-12-11T23:27:59.679Z,96050.55
2018-12-11T23:30:35.946Z,96043.91
2018-12-11T23:33:16.810Z,96047.41
2018-12-11T23:35:56.161Z,96042.05
2018-12-11T23:38:31.083Z,96041.20
2018-12-11T23:41:09.045Z,96043.30
2018-12-11T23:43:47.194Z,96039.34
2018-12-11T23:46:22.467Z,96051.57
2018-12-11T23:48:59.990Z,96040.04
2018-12-11T23:51:36.267Z,96043.19
2018-12-11T23:54:23.416Z,96037.83
2018-12-11T23:56:59.663Z,96035.27
2018-12-11T23:59:34.391Z,96037.39
